Terminal Aerodrome Forecast
Issued by NWS Raleigh/Durham, NC

Home | Current Version | Previous Version | Text Only | Print | Product List | Glossary On
Versions: 1 2 3 4 5 6 7 8 9 10 11 12 13 14 15 16 17 18 19 20
000
FTUS42 KRAH 251140
TAFFAY
TAF
KFAY 251140Z 2512/2612 22006KT P6SM VCSH BKN014 BKN100
      TEMPO 2512/2513 6SM BR SCT015
     FM251530 27009G18KT P6SM VCSH BKN022
     FM251830 30009G18KT P6SM VCSH BKN035
     FM252300 32006KT P6SM SCT035 SCT250=

USA.gov is the U.S. government's official web portal to all federal, state and local government web resources and services.